Time;durP1;ratioP1;P1;durP2;ratioP2;P2;SDS_P1;SDS_P2;PMS_P1;PMS_P2;Temp;Humidity;BMP_temperature;BMP_pressure;BME280_temperature;BME280_humidity;BME280_pressure;Samples;Min_cycle;Max_cycle;Signal;HPM_P1;HPM_P2
2023/12/14 00:01:21;;;;;;;6.60;3.30;;;;;;;6.44;76.51;101041.69;7391747;19;20362;-62
2023/12/14 00:03:49;;;;;;;6.80;3.72;;;;;;;6.43;76.34;101046.09;7393544;19;20022;-61
2023/12/14 00:06:17;;;;;;;6.68;3.55;;;;;;;6.50;76.50;101044.03;7393731;19;20018;-62
2023/12/14 00:08:45;;;;;;;8.93;3.95;;;;;;;6.46;76.49;101048.59;7392735;19;20056;-62
2023/12/14 00:11:12;;;;;;;7.43;3.70;;;;;;;6.41;76.42;101055.88;7391475;19;20373;-62
2023/12/14 00:13:41;;;;;;;7.78;4.07;;;;;;;6.42;76.37;101051.47;7393660;19;20019;-62
2023/12/14 00:16:09;;;;;;;7.35;3.47;;;;;;;6.37;76.06;101071.88;7393361;19;20050;-62
2023/12/14 00:18:37;;;;;;;6.97;3.58;;;;;;;6.29;76.08;101074.88;7393386;19;20032;-62
2023/12/14 00:21:05;;;;;;;7.50;3.78;;;;;;;6.27;76.09;101066.25;7391501;19;20047;-62
2023/12/14 00:23:36;;;;;;;7.35;4.03;;;;;;;6.41;75.61;101076.91;7393763;19;20030;-62
2023/12/14 00:26:04;;;;;;;9.07;4.50;;;;;;;6.41;75.34;101090.06;7393260;19;20029;-62
2023/12/14 00:28:31;;;;;;;8.43;3.50;;;;;;;6.29;75.23;101085.41;7390897;19;20010;-62
2023/12/14 00:31:01;;;;;;;6.57;3.95;;;;;;;6.31;75.29;101078.31;7390616;19;20015;-62
2023/12/14 00:33:29;;;;;;;7.65;3.78;;;;;;;6.28;75.07;101078.47;7393177;19;20022;-62
2023/12/14 00:35:57;;;;;;;7.60;3.80;;;;;;;6.21;75.22;101087.56;7392666;19;20031;-62
2023/12/14 00:38:25;;;;;;;8.23;4.32;;;;;;;6.32;75.08;101086.09;7392550;19;20034;-62
2023/12/14 00:40:53;;;;;;;8.23;3.95;;;;;;;6.28;75.17;101089.81;7390661;19;20043;-59
2023/12/14 00:43:21;;;;;;;7.22;3.47;;;;;;;6.20;75.07;101081.47;7392661;19;20018;-58
2023/12/14 00:45:49;;;;;;;8.30;3.92;;;;;;;6.23;75.28;101097.09;7392093;19;20022;-62
2023/12/14 00:48:17;;;;;;;6.90;3.55;;;;;;;6.28;74.72;101097.72;7392795;19;20026;-61
2023/12/14 00:50:45;;;;;;;7.68;3.95;;;;;;;6.19;74.88;101106.06;7389186;19;20021;-62
2023/12/14 00:53:12;;;;;;;7.63;3.50;;;;;;;6.27;74.93;101111.81;7391007;19;20506;-62
2023/12/14 00:55:40;;;;;;;6.57;3.45;;;;;;;6.31;74.87;101117.75;7391795;19;20014;-62
2023/12/14 00:58:08;;;;;;;7.28;3.47;;;;;;;6.29;74.38;101120.44;7391734;19;20056;-61
2023/12/14 01:00:36;;;;;;;6.95;3.08;;;;;;;6.36;74.65;101134.16;7390307;19;20029;-62
2023/12/14 01:03:04;;;;;;;6.35;3.50;;;;;;;6.26;74.56;101122.41;7391624;19;20032;-61
2023/12/14 01:05:32;;;;;;;6.07;3.10;;;;;;;6.30;74.29;101132.69;7391852;19;20568;-61
2023/12/14 01:08:00;;;;;;;7.15;3.10;;;;;;;6.31;74.55;101138.81;7391884;19;20018;-61
2023/12/14 01:10:28;;;;;;;8.13;3.17;;;;;;;6.41;73.97;101139.19;7389578;19;20035;-61
2023/12/14 01:12:56;;;;;;;7.13;3.10;;;;;;;6.42;73.90;101144.38;7391582;19;20018;-62
2023/12/14 01:15:24;;;;;;;7.03;3.10;;;;;;;6.34;73.50;101150.03;7391856;19;20018;-62
2023/12/14 01:17:52;;;;;;;5.75;2.92;;;;;;;6.25;74.29;101149.59;7391450;19;20030;-61
2023/12/14 01:20:19;;;;;;;7.18;2.88;;;;;;;6.38;74.32;101163.03;7390433;19;20022;-62
2023/12/14 01:22:47;;;;;;;6.13;2.83;;;;;;;6.42;73.81;101160.16;7393089;19;20048;-61
2023/12/14 01:25:15;;;;;;;8.20;2.83;;;;;;;6.43;74.00;101169.75;7392706;19;20064;-60
2023/12/14 01:27:43;;;;;;;4.47;2.55;;;;;;;6.42;73.54;101183.00;7392034;19;20015;-62
2023/12/14 01:30:11;;;;;;;6.10;2.70;;;;;;;6.40;73.88;101183.03;7391002;19;20018;-60
2023/12/14 01:32:39;;;;;;;6.75;2.85;;;;;;;6.35;73.92;101179.81;7393198;19;20078;-60
2023/12/14 01:35:07;;;;;;;4.93;2.45;;;;;;;6.37;73.82;101182.34;7391668;19;20027;-61
2023/12/14 01:37:35;;;;;;;5.72;2.72;;;;;;;6.34;73.97;101188.63;7393153;19;20023;-62
2023/12/14 01:40:03;;;;;;;6.03;2.55;;;;;;;6.33;73.99;101185.16;7392548;19;20024;-60
2023/12/14 01:42:31;;;;;;;5.80;2.92;;;;;;;6.29;74.19;101180.09;7393545;19;20021;-61
2023/12/14 01:44:59;;;;;;;4.65;2.33;;;;;;;6.21;74.43;101182.25;7391547;19;20024;-61
2023/12/14 01:47:27;;;;;;;6.95;2.60;;;;;;;6.25;74.48;101189.91;7392906;19;20014;-59
2023/12/14 01:49:55;;;;;;;7.07;3.38;;;;;;;6.23;74.30;101188.28;7391888;19;20019;-60
2023/12/14 01:52:23;;;;;;;6.57;3.15;;;;;;;6.16;74.51;101189.50;7390820;19;20778;-60
2023/12/14 01:54:51;;;;;;;5.05;2.60;;;;;;;6.14;74.44;101192.19;7393061;19;20014;-59
2023/12/14 01:57:19;;;;;;;5.68;2.45;;;;;;;6.24;74.12;101200.50;7395896;19;20483;-59
2023/12/14 01:59:47;;;;;;;7.57;2.28;;;;;;;6.28;73.60;101197.66;7400368;19;20007;-59
2023/12/14 02:02:14;;;;;;;6.07;2.67;;;;;;;6.28;73.66;101194.16;7399786;19;20113;-59
2023/12/14 02:04:43;;;;;;;5.80;2.50;;;;;;;6.29;73.75;101196.72;7400763;19;20496;-60
2023/12/14 02:07:11;;;;;;;5.72;2.70;;;;;;;6.16;73.88;101198.25;7400829;19;20039;-60
2023/12/14 02:09:39;;;;;;;5.50;2.58;;;;;;;6.19;74.06;101194.63;7397288;19;20077;-61
2023/12/14 02:12:06;;;;;;;5.25;2.67;;;;;;;6.10;74.03;101195.91;7399717;19;20383;-60
2023/12/14 02:14:34;;;;;;;5.57;2.42;;;;;;;6.10;73.96;101204.66;7400176;19;20336;-61
2023/12/14 02:17:02;;;;;;;5.55;2.15;;;;;;;6.09;74.09;101194.22;7400938;19;20098;-60
2023/12/14 02:19:30;;;;;;;4.13;2.17;;;;;;;6.14;73.80;101202.72;7400814;19;20015;-60
2023/12/14 02:21:58;;;;;;;5.00;2.45;;;;;;;6.02;73.90;101214.66;7400271;19;20377;-60
2023/12/14 02:24:26;;;;;;;5.47;2.53;;;;;;;6.04;74.01;101220.72;7397212;19;20077;-59
2023/12/14 02:26:53;;;;;;;6.65;2.70;;;;;;;6.09;74.25;101223.97;7397457;19;20078;-56
2023/12/14 02:29:30;;;;;;;6.70;2.88;;;;;;;6.03;74.48;101232.16;7395226;19;20365;-59
2023/12/14 02:31:58;;;;;;;4.85;2.60;;;;;;;6.02;75.13;101229.59;7397067;19;20054;-58
2023/12/14 02:34:26;;;;;;;7.32;2.92;;;;;;;6.10;75.18;101233.59;7398477;19;20031;-61
2023/12/14 02:36:54;;;;;;;8.90;3.63;;;;;;;6.07;75.19;101235.50;7397723;19;20023;-62
2023/12/14 02:39:22;;;;;;;7.18;3.10;;;;;;;5.99;75.57;101237.63;7398030;19;20333;-62
2023/12/14 02:41:50;;;;;;;8.68;3.08;;;;;;;5.95;75.84;101243.94;7395343;19;20422;-61
2023/12/14 02:44:18;;;;;;;7.32;3.28;;;;;;;6.06;75.93;101245.16;7398220;19;20093;-62
2023/12/14 02:46:45;;;;;;;8.82;3.47;;;;;;;6.12;75.62;101258.94;7398637;19;20533;-62
2023/12/14 02:49:13;;;;;;;8.75;3.13;;;;;;;6.21;75.33;101261.13;7399122;19;20701;-62
2023/12/14 02:51:41;;;;;;;7.18;3.03;;;;;;;6.17;75.18;101251.69;7396460;19;20021;-62
2023/12/14 02:54:09;;;;;;;8.00;3.58;;;;;;;6.13;75.21;101263.28;7400424;19;20467;-62
2023/12/14 02:56:37;;;;;;;9.48;3.03;;;;;;;6.17;75.53;101270.09;7398978;19;20349;-61
2023/12/14 02:59:05;;;;;;;7.10;3.05;;;;;;;6.22;75.59;101271.59;7399663;19;20014;-62
2023/12/14 03:01:32;;;;;;;8.98;3.03;;;;;;;6.22;75.66;101270.72;7394450;19;20042;-62
2023/12/14 03:04:00;;;;;;;8.80;3.38;;;;;;;6.24;75.30;101277.63;7396403;19;20018;-60
2023/12/14 03:06:32;;;;;;;8.82;2.95;;;;;;;6.16;75.68;101276.28;7396220;19;20026;-61
2023/12/14 03:09:00;;;;;;;8.13;2.83;;;;;;;6.10;76.17;101283.53;7393442;19;20384;-60
2023/12/14 03:11:28;;;;;;;8.85;2.95;;;;;;;6.16;76.39;101284.19;7392125;19;20019;-57
2023/12/14 03:13:56;;;;;;;8.77;3.20;;;;;;;6.11;75.87;101276.50;7396190;19;20495;-59
2023/12/14 03:16:24;;;;;;;8.40;2.75;;;;;;;6.20;76.33;101283.94;7396442;19;20022;-59
2023/12/14 03:18:56;;;;;;;7.85;3.00;;;;;;;6.25;76.11;101289.00;7395931;19;20025;-57
2023/12/14 03:21:24;;;;;;;9.10;3.17;;;;;;;6.32;75.89;101282.53;7393407;19;20011;-58
2023/12/14 03:23:52;;;;;;;6.60;3.17;;;;;;;6.31;76.11;101288.72;7395978;19;20011;-61
2023/12/14 03:26:20;;;;;;;6.80;2.78;;;;;;;6.33;75.71;101279.84;7396007;19;20026;-61
2023/12/14 03:28:47;;;;;;;7.07;3.47;;;;;;;6.21;76.30;101290.06;7396448;19;20353;-60
2023/12/14 03:31:16;;;;;;;8.75;2.92;;;;;;;6.16;76.80;101295.53;7394071;19;20386;-63
2023/12/14 03:33:43;;;;;;;9.27;3.00;;;;;;;6.31;76.49;101294.81;7398049;19;20026;-63
2023/12/14 03:36:11;;;;;;;7.45;2.90;;;;;;;6.41;76.03;101297.00;7395410;19;20043;-60
2023/12/14 03:38:39;;;;;;;6.03;2.80;;;;;;;6.41;75.87;101297.00;7395587;19;20376;-60
2023/12/14 03:41:07;;;;;;;8.20;3.25;;;;;;;6.42;75.28;101296.09;7393367;19;20018;-59
2023/12/14 03:43:35;;;;;;;6.32;2.80;;;;;;;6.47;75.22;101304.63;7394823;19;20022;-59
2023/12/14 03:46:03;;;;;;;7.68;2.92;;;;;;;6.47;75.29;101310.72;7393906;19;20043;-59
2023/12/14 03:48:31;;;;;;;6.55;2.67;;;;;;;6.34;76.07;101314.88;7395171;19;20024;-59
2023/12/14 03:51:03;;;;;;;8.82;3.35;;;;;;;6.42;75.56;101323.25;7392420;19;20015;-58
2023/12/14 03:53:31;;;;;;;7.25;2.65;;;;;;;6.46;75.44;101334.50;7395130;19;20082;-58
2023/12/14 03:56:00;;;;;;;7.35;2.70;;;;;;;6.37;75.61;101325.22;7393278;19;20025;-58
2023/12/14 03:58:28;;;;;;;5.03;2.50;;;;;;;6.40;75.88;101332.13;7395145;19;20538;-59
2023/12/14 04:00:56;;;;;;;10.95;3.30;;;;;;;6.38;75.60;101326.97;7392930;19;20036;-59
2023/12/14 04:03:24;;;;;;;7.07;2.60;;;;;;;6.47;75.12;101337.03;7394398;19;20015;-58
2023/12/14 04:05:52;;;;;;;7.30;2.63;;;;;;;6.40;75.18;101325.09;7394248;19;20023;-60
2023/12/14 04:08:19;;;;;;;6.05;2.40;;;;;;;6.45;75.07;101344.16;7394647;19;20007;-60
2023/12/14 04:10:47;;;;;;;5.85;2.42;;;;;;;6.39;75.31;101343.59;7392710;19;20039;-58
2023/12/14 04:13:15;;;;;;;7.15;2.60;;;;;;;6.48;75.18;101344.00;7394281;19;20014;-58
2023/12/14 04:15:43;;;;;;;6.03;2.25;;;;;;;6.39;74.78;101336.53;7394122;19;20479;-59
2023/12/14 04:18:11;;;;;;;7.35;2.38;;;;;;;6.51;74.92;101354.38;7394183;19;20091;-61
2023/12/14 04:20:39;;;;;;;7.22;2.50;;;;;;;6.56;74.46;101362.94;7392674;19;20010;-60
2023/12/14 04:23:07;;;;;;;5.47;2.35;;;;;;;6.54;74.14;101370.03;7394579;19;20104;-60
2023/12/14 04:25:35;;;;;;;4.53;2.15;;;;;;;6.34;74.92;101368.34;7393793;19;20018;-59
2023/12/14 04:28:03;;;;;;;6.28;2.42;;;;;;;6.39;74.96;101383.91;7394213;19;20022;-60
2023/12/14 04:30:31;;;;;;;7.03;2.20;;;;;;;6.49;74.60;101379.94;7392976;19;20359;-61
2023/12/14 04:32:58;;;;;;;5.97;2.30;;;;;;;6.52;74.15;101381.53;7393228;19;20010;-60
2023/12/14 04:35:26;;;;;;;6.32;2.20;;;;;;;6.51;74.23;101393.84;7393716;19;20034;-59
2023/12/14 04:37:54;;;;;;;4.68;2.10;;;;;;;6.46;74.36;101384.47;7393785;19;20052;-60
2023/12/14 04:40:22;;;;;;;5.97;1.92;;;;;;;6.44;74.27;101384.53;7390916;19;20022;-60
2023/12/14 04:42:50;;;;;;;5.45;2.08;;;;;;;6.47;73.98;101394.06;7393683;19;20041;-61
2023/12/14 04:45:19;;;;;;;4.25;1.70;;;;;;;6.54;73.75;101393.72;7393244;19;20029;-60
2023/12/14 04:47:46;;;;;;;4.80;2.10;;;;;;;6.56;73.72;101399.75;7393772;19;20455;-59
2023/12/14 04:50:15;;;;;;;5.70;2.00;;;;;;;6.54;74.11;101408.66;7391903;19;20047;-60
2023/12/14 04:52:43;;;;;;;4.20;1.73;;;;;;;6.44;74.35;101408.19;7393023;19;20025;-63
2023/12/14 04:55:10;;;;;;;5.90;2.30;;;;;;;6.52;74.52;101416.59;7392863;19;20084;-64
2023/12/14 04:57:38;;;;;;;5.97;2.10;;;;;;;6.53;73.92;101423.59;7392583;19;20026;-63
2023/12/14 05:00:07;;;;;;;7.80;2.30;;;;;;;6.55;74.01;101421.72;7392194;19;20496;-63
2023/12/14 05:02:35;;;;;;;3.88;1.73;;;;;;;6.48;74.47;101420.28;7392586;19;20029;-63
2023/12/14 05:05:04;;;;;;;6.18;2.25;;;;;;;6.55;74.37;101434.03;7391132;19;20014;-63
2023/12/14 05:07:32;;;;;;;5.82;2.10;;;;;;;6.58;74.37;101428.63;7392797;19;20017;-62
2023/12/14 05:10:00;;;;;;;10.55;2.47;;;;;;;6.59;74.21;101432.97;7390153;19;20031;-62
2023/12/14 05:12:31;;;;;;;6.20;2.20;;;;;;;6.55;74.37;101441.91;7391955;19;20024;-62
2023/12/14 05:14:59;;;;;;;5.63;2.33;;;;;;;6.60;74.07;101434.66;7392619;19;20018;-62
2023/12/14 05:17:27;;;;;;;4.85;2.40;;;;;;;6.63;73.78;101431.88;7390228;19;20010;-66
2023/12/14 05:19:56;;;;;;;5.40;2.10;;;;;;;6.75;73.65;101448.88;7391040;19;20014;-66
2023/12/14 05:22:24;;;;;;;7.60;2.45;;;;;;;6.59;73.71;101451.38;7392292;19;20018;-66
2023/12/14 05:24:52;;;;;;;6.07;2.50;;;;;;;6.52;74.42;101447.31;7391608;19;20532;-66
2023/12/14 05:27:19;;;;;;;5.55;2.78;;;;;;;6.51;74.17;101467.50;7391769;19;20515;-66
2023/12/14 05:29:47;;;;;;;6.55;2.50;;;;;;;6.54;74.42;101467.38;7389294;19;20023;-66
2023/12/14 05:32:15;;;;;;;6.55;2.60;;;;;;;6.62;74.48;101469.66;7388952;19;20019;-66
2023/12/14 05:34:43;;;;;;;6.30;2.47;;;;;;;6.70;73.87;101477.22;7391813;19;20043;-66
2023/12/14 05:37:11;;;;;;;5.45;2.42;;;;;;;6.63;74.04;101475.78;7391201;19;20018;-66
2023/12/14 05:39:41;;;;;;;5.07;2.40;;;;;;;6.62;73.94;101474.94;7390687;19;20483;-66
2023/12/14 05:42:09;;;;;;;6.18;2.60;;;;;;;6.59;74.30;101475.91;7389285;19;20011;-66
2023/12/14 05:44:37;;;;;;;8.35;2.53;;;;;;;6.63;74.60;101483.66;7390994;19;20363;-66
2023/12/14 05:47:05;;;;;;;8.60;3.00;;;;;;;6.64;74.49;101480.09;7388879;19;20476;-66
2023/12/14 05:49:33;;;;;;;6.60;2.72;;;;;;;6.64;74.64;101482.75;7390752;19;20015;-65
2023/12/14 05:52:01;;;;;;;6.32;2.78;;;;;;;6.67;74.53;101496.63;7387331;19;20026;-65
2023/12/14 05:54:29;;;;;;;6.85;2.72;;;;;;;6.73;74.32;101487.59;7390742;19;20023;-65
2023/12/14 05:56:57;;;;;;;8.10;2.95;;;;;;;6.65;74.49;101495.00;7390589;19;20022;-65
2023/12/14 05:59:25;;;;;;;5.68;2.85;;;;;;;6.61;74.39;101494.28;7390573;19;20018;-65
2023/12/14 06:01:59;;;;;;;6.45;2.90;;;;;;;6.67;74.62;101498.41;7387913;19;20082;-68
2023/12/14 06:04:28;;;;;;;8.02;3.28;;;;;;;6.61;74.62;101498.69;7388905;19;20027;-67
2023/12/14 06:06:56;;;;;;;7.93;3.10;;;;;;;6.51;75.05;101498.25;7390795;19;20039;-68
2023/12/14 06:09:33;;;;;;;7.53;2.83;;;;;;;6.58;75.00;101503.16;7390810;19;20022;-68
2023/12/14 06:12:02;;;;;;;5.60;2.97;;;;;;;6.66;74.71;101515.97;7388338;19;20029;-68
2023/12/14 06:14:30;;;;;;;5.97;2.80;;;;;;;6.71;74.71;101521.88;7388719;19;20608;-68
2023/12/14 06:16:58;;;;;;;8.50;2.80;;;;;;;6.70;74.25;101516.69;7390078;19;20015;-68
2023/12/14 06:19:26;;;;;;;7.30;2.85;;;;;;;6.66;74.58;101510.72;7390648;19;20015;-68
2023/12/14 06:21:54;;;;;;;7.20;2.75;;;;;;;6.76;74.41;101529.59;7389393;19;20010;-68
2023/12/14 06:24:22;;;;;;;7.40;3.00;;;;;;;6.62;74.64;101529.34;7390429;19;20082;-67
2023/12/14 06:26:50;;;;;;;6.30;2.75;;;;;;;6.59;74.88;101530.31;7389820;19;20019;-70
2023/12/14 06:29:18;;;;;;;7.43;2.50;;;;;;;6.64;74.96;101538.88;7390376;19;20028;-69
2023/12/14 06:31:46;;;;;;;6.80;2.83;;;;;;;6.66;74.51;101538.81;7386997;19;20036;-66
2023/12/14 06:34:14;;;;;;;7.00;2.60;;;;;;;6.67;75.01;101549.25;7390068;19;20489;-66
2023/12/14 06:36:44;;;;;;;6.55;2.95;;;;;;;6.62;75.01;101550.38;7389913;19;20018;-70
2023/12/14 06:39:12;;;;;;;8.13;2.55;;;;;;;6.71;74.71;101557.88;7390046;19;20515;-71
2023/12/14 06:41:39;;;;;;;6.53;2.75;;;;;;;6.77;74.22;101557.59;7387109;19;20082;-72
2023/12/14 06:44:09;;;;;;;8.07;3.00;;;;;;;6.78;74.34;101564.56;7396537;19;20082;-67
2023/12/14 06:46:37;;;;;;;7.10;2.60;;;;;;;6.67;74.79;101570.31;7397677;19;20018;-68
2023/12/14 06:49:04;;;;;;;6.68;2.53;;;;;;;6.69;74.50;101573.75;7394925;19;20074;-68
2023/12/14 06:51:32;;;;;;;7.88;2.60;;;;;;;6.67;74.59;101585.25;7392270;19;20026;-67
2023/12/14 06:54:00;;;;;;;6.03;2.47;;;;;;;6.75;74.59;101593.66;7396780;19;20035;-67
2023/12/14 06:56:28;;;;;;;6.18;2.30;;;;;;;6.74;74.35;101590.16;7396119;19;20016;-67
2023/12/14 06:58:56;;;;;;;5.10;2.08;;;;;;;6.74;73.89;101594.59;7396631;19;20262;-67
2023/12/14 07:01:24;;;;;;;5.45;2.10;;;;;;;6.68;73.69;101606.25;7393876;19;20023;-67
2023/12/14 07:03:52;;;;;;;4.63;1.67;;;;;;;6.72;73.60;101607.81;7396930;19;20018;-67
2023/12/14 07:06:21;;;;;;;4.22;1.80;;;;;;;6.71;73.46;101611.34;7396216;19;20022;-67
2023/12/14 07:08:48;;;;;;;5.38;1.92;;;;;;;6.77;73.44;101624.25;7396107;19;20531;-67
2023/12/14 07:11:17;;;;;;;5.32;1.95;;;;;;;6.71;73.41;101615.78;7393208;19;20018;-67
2023/12/14 07:13:45;;;;;;;7.15;2.30;;;;;;;6.47;74.38;101623.81;7396058;19;20015;-65
2023/12/14 07:16:13;;;;;;;8.52;2.80;;;;;;;6.55;74.67;101626.97;7395861;19;20036;-67
2023/12/14 07:18:41;;;;;;;7.57;2.95;;;;;;;6.71;74.25;101624.50;7395606;19;20039;-67
2023/12/14 07:21:10;;;;;;;8.07;3.22;;;;;;;6.73;74.20;101630.59;7393080;19;20090;-67
2023/12/14 07:23:38;;;;;;;7.15;3.33;;;;;;;6.61;74.30;101640.78;7395278;19;20363;-67
2023/12/14 07:26:06;;;;;;;6.88;3.20;;;;;;;6.63;74.38;101647.69;7395331;19;20022;-67
2023/12/14 07:28:35;;;;;;;7.03;3.25;;;;;;;6.70;74.90;101657.03;7395608;19;20475;-67
2023/12/14 07:31:03;;;;;;;9.45;3.47;;;;;;;6.73;74.82;101656.91;7393218;19;20035;-67
2023/12/14 07:33:31;;;;;;;9.05;3.33;;;;;;;6.63;75.12;101658.22;7395204;19;20081;-67
2023/12/14 07:35:59;;;;;;;8.50;3.95;;;;;;;6.63;75.19;101660.84;7395150;19;20019;-67
2023/12/14 07:38:27;;;;;;;10.93;4.22;;;;;;;6.60;75.44;101663.59;7394941;19;20042;-67
2023/12/14 07:40:57;;;;;;;8.50;4.15;;;;;;;6.59;75.65;101673.28;7391443;19;20038;-67
2023/12/14 07:43:24;;;;;;;9.32;4.30;;;;;;;6.72;75.56;101672.78;7393513;19;20043;-67
2023/12/14 07:45:53;;;;;;;9.60;4.70;;;;;;;6.71;75.44;101679.78;7395113;19;20052;-65
2023/12/14 07:48:20;;;;;;;10.98;4.70;;;;;;;6.75;75.57;101672.63;7394612;19;20086;-66
2023/12/14 07:50:48;;;;;;;10.63;4.93;;;;;;;6.71;75.47;101679.78;7392259;19;20019;-66
2023/12/14 07:53:16;;;;;;;10.07;4.70;;;;;;;6.56;75.87;101690.97;7394602;19;20022;-66
2023/12/14 07:55:44;;;;;;;9.63;5.00;;;;;;;6.54;76.29;101691.03;7393429;19;20018;-71
2023/12/14 07:58:13;;;;;;;13.75;5.82;;;;;;;6.53;76.48;101699.88;7394465;19;20014;-70
2023/12/14 08:00:41;;;;;;;12.15;5.20;;;;;;;6.52;76.70;101700.75;7392489;19;20026;-69
2023/12/14 08:03:08;;;;;;;10.25;5.30;;;;;;;6.61;76.54;101707.44;7394354;19;20022;-68
2023/12/14 08:05:36;;;;;;;11.13;5.88;;;;;;;6.67;76.27;101712.44;7392542;19;20019;-68
2023/12/14 08:08:05;;;;;;;12.73;5.72;;;;;;;6.72;76.05;101707.84;7392793;19;20014;-69
2023/12/14 08:10:35;;;;;;;12.38;5.75;;;;;;;6.77;76.03;101707.66;7391577;19;20019;-69
2023/12/14 08:13:03;;;;;;;13.48;6.20;;;;;;;6.67;76.38;101712.44;7391982;19;20435;-70
2023/12/14 08:15:31;;;;;;;14.50;6.63;;;;;;;6.60;76.45;101718.84;7393665;19;20025;-68
2023/12/14 08:17:59;;;;;;;12.10;6.05;;;;;;;6.59;76.80;101717.16;7392247;19;20018;-68
2023/12/14 08:20:27;;;;;;;15.20;6.18;;;;;;;6.68;76.70;101727.31;7392317;19;20483;-68
2023/12/14 08:22:56;;;;;;;14.68;6.50;;;;;;;6.56;77.03;101723.44;7391574;19;20351;-68
2023/12/14 08:25:23;;;;;;;12.57;6.05;;;;;;;6.61;76.68;101733.75;7393604;19;20026;-68
2023/12/14 08:27:51;;;;;;;12.85;6.43;;;;;;;6.65;76.79;101731.84;7393940;19;20055;-68
2023/12/14 08:30:21;;;;;;;12.32;6.00;;;;;;;6.59;76.64;101727.69;7392035;19;20019;-69
2023/12/14 08:32:49;;;;;;;12.02;5.72;;;;;;;6.59;76.70;101731.16;7392002;19;20014;-69
2023/12/14 08:35:17;;;;;;;14.93;5.78;;;;;;;6.71;76.76;101737.69;7393453;19;20763;-68
2023/12/14 08:37:45;;;;;;;14.35;5.50;;;;;;;6.75;76.48;101739.31;7393182;19;20037;-68
2023/12/14 08:40:13;;;;;;;13.80;6.15;;;;;;;6.86;76.11;101748.50;7389901;19;20023;-68
2023/12/14 08:42:41;;;;;;;13.38;5.90;;;;;;;6.80;75.93;101749.63;7392663;19;20013;-69
2023/12/14 08:45:11;;;;;;;11.80;5.70;;;;;;;6.76;76.22;101756.81;7392753;19;20031;-69
2023/12/14 08:47:39;;;;;;;11.95;5.70;;;;;;;6.76;76.35;101756.81;7392869;19;20364;-70
2023/12/14 08:50:08;;;;;;;12.52;5.78;;;;;;;6.87;76.24;101763.38;7391590;19;20078;-70
2023/12/14 08:52:36;;;;;;;10.55;5.38;;;;;;;6.86;76.15;101753.78;7391283;19;20018;-67
2023/12/14 08:55:06;;;;;;;12.88;5.35;;;;;;;6.86;76.21;101764.31;7392486;19;20024;-67
2023/12/14 08:57:34;;;;;;;12.18;5.85;;;;;;;6.91;75.74;101773.75;7391902;19;20018;-67
2023/12/14 09:00:06;;;;;;;11.80;5.47;;;;;;;6.90;75.83;101771.16;7391097;19;20027;-65
2023/12/14 09:02:35;;;;;;;12.82;5.82;;;;;;;6.93;75.77;101771.88;7392694;19;20011;-65
2023/12/14 09:05:04;;;;;;;14.95;5.72;;;;;;;6.91;76.18;101788.69;7391743;19;20015;-68
2023/12/14 09:08:51;;;;;;;12.25;5.70;;;;;;;6.93;75.91;101782.41;7425419;19;20297;-66
2023/12/14 09:11:19;;;;;;;12.65;5.68;;;;;;;6.96;76.06;101777.03;7424755;19;20429;-69
2023/12/14 09:13:47;;;;;;;11.50;4.65;;;;;;;7.02;75.25;101789.94;7427293;19;20025;-67
2023/12/14 09:18:23;;;;;;;13.18;5.05;;;;;;;6.80;75.77;101802.28;7425289;19;20841;-68
2023/12/14 09:20:52;;;;;;;11.38;4.80;;;;;;;6.82;76.11;101805.69;7423346;19;20042;-66
2023/12/14 09:23:19;;;;;;;12.90;5.10;;;;;;;6.92;75.76;101816.72;7427970;19;20022;-66
2023/12/14 09:25:48;;;;;;;11.02;4.95;;;;;;;7.00;75.52;101825.16;7427996;19;20465;-67
2023/12/14 09:28:15;;;;;;;14.13;6.97;;;;;;;7.00;75.08;101812.84;7427624;19;20011;-67
2023/12/14 09:30:44;;;;;;;12.20;5.10;;;;;;;6.96;75.58;101826.22;7425332;19;20022;-67
2023/12/14 09:33:12;;;;;;;12.55;4.88;;;;;;;6.98;75.24;101833.13;7427650;19;20018;-67
2023/12/14 09:35:41;;;;;;;12.70;4.68;;;;;;;7.05;74.77;101839.84;7427270;19;20419;-66
2023/12/14 09:38:09;;;;;;;10.88;4.60;;;;;;;7.00;74.79;101835.69;7424283;19;20031;-67
2023/12/14 09:40:37;;;;;;;10.70;4.18;;;;;;;6.99;74.96;101842.75;7424917;19;20022;-67
2023/12/14 09:43:05;;;;;;;10.82;4.70;;;;;;;7.06;74.79;101846.84;7427391;19;20022;-70
2023/12/14 09:45:36;;;;;;;11.02;4.25;;;;;;;7.21;74.18;101850.63;7427570;19;20024;-71
2023/12/14 09:48:05;;;;;;;11.63;4.80;;;;;;;7.20;74.16;101854.16;7427437;19;20021;-71
2023/12/14 09:50:34;;;;;;;12.70;4.50;;;;;;;7.11;74.30;101849.28;7425018;19;20018;-69
2023/12/14 09:53:02;;;;;;;10.55;4.35;;;;;;;7.06;74.26;101854.75;7426718;19;20031;-69
2023/12/14 09:55:31;;;;;;;13.18;4.50;;;;;;;7.08;74.55;101865.19;7425698;19;20033;-69
2023/12/14 09:57:59;;;;;;;10.63;4.40;;;;;;;7.02;74.68;101861.06;7423610;19;20565;-68
2023/12/14 10:00:40;;;;;;;10.07;4.50;;;;;;;7.08;74.27;101858.16;7423903;19;20029;-72
2023/12/14 10:03:28;;;;;;;10.75;4.63;;;;;;;7.15;74.15;101871.06;7426811;19;20014;-72
2023/12/14 10:05:57;;;;;;;11.13;4.80;;;;;;;7.20;73.91;101877.00;7425124;19;20022;-74
2023/12/14 10:08:26;;;;;;;10.88;4.80;;;;;;;7.16;74.26;101868.38;7426671;19;20024;-74
2023/12/14 10:10:55;;;;;;;10.68;4.75;;;;;;;7.31;73.74;101880.91;7424377;19;20042;-66
2023/12/14 10:13:37;;;;;;;12.43;4.50;;;;;;;7.24;73.71;101895.25;7424546;19;20026;-66
2023/12/14 10:16:05;;;;;;;8.82;4.30;;;;;;;7.26;73.89;101892.56;7424502;19;20039;-65
2023/12/14 10:18:36;;;;;;;10.55;4.30;;;;;;;7.20;73.85;101882.28;7423476;19;20026;-65
2023/12/14 10:21:08;;;;;;;11.43;4.78;;;;;;;7.23;73.99;101882.16;7423028;19;20026;-65
2023/12/14 10:23:39;;;;;;;10.70;4.22;;;;;;;7.30;73.57;101894.16;7425776;19;20022;-67
2023/12/14 10:26:06;;;;;;;10.90;4.82;;;;;;;7.34;73.07;101893.09;7425903;19;20420;-68
2023/12/14 10:28:34;;;;;;;9.48;4.63;;;;;;;7.39;73.24;101899.03;7409552;19;20022;-69
2023/12/14 10:31:05;;;;;;;10.23;4.43;;;;;;;7.43;72.61;101894.47;7394557;19;20038;-71
2023/12/14 10:33:33;;;;;;;13.32;4.65;;;;;;;7.33;73.30;101900.16;7396817;19;20412;-71
2023/12/14 10:36:03;;;;;;;9.18;4.55;;;;;;;7.32;73.55;101901.03;7394724;19;20349;-69
2023/12/14 10:38:34;;;;;;;11.40;5.00;;;;;;;7.31;73.38;101909.03;7394639;19;20022;-69
2023/12/14 10:41:03;;;;;;;9.50;4.82;;;;;;;7.37;73.67;101911.41;7394957;19;20027;-67
2023/12/14 10:43:33;;;;;;;10.13;4.72;;;;;;;7.52;72.52;101916.06;7396700;19;20576;-67
2023/12/14 10:46:16;;;;;;;10.52;4.63;;;;;;;7.32;73.30;101921.28;7396552;19;20038;-66
2023/12/14 10:48:46;;;;;;;10.35;5.03;;;;;;;7.39;73.36;101929.78;7394977;19;20370;-65
2023/12/14 10:51:15;;;;;;;11.90;5.18;;;;;;;7.32;73.08;101934.44;7392344;19;20542;-66
2023/12/14 10:53:47;;;;;;;9.45;4.78;;;;;;;7.21;73.44;101927.00;7396444;19;20392;-67
2023/12/14 10:56:17;;;;;;;10.90;4.20;;;;;;;7.38;73.13;101930.72;7396160;19;20810;-70
2023/12/14 10:58:51;;;;;;;11.32;4.80;;;;;;;7.38;73.05;101934.22;7392493;19;20018;-69
2023/12/14 11:01:20;;;;;;;10.13;4.38;;;;;;;7.33;73.65;101938.81;7393167;19;20030;-71
2023/12/14 11:03:50;;;;;;;10.55;4.97;;;;;;;7.42;73.05;101933.16;7396153;19;20521;-71
2023/12/14 11:06:31;;;;;;;9.90;4.75;;;;;;;7.51;72.74;101929.28;7395851;19;20135;-71
2023/12/14 11:09:05;;;;;;;11.02;4.95;;;;;;;7.40;73.28;101944.66;7394009;19;20019;-69
2023/12/14 11:11:53;;;;;;;10.60;4.60;;;;;;;7.41;73.22;101942.00;7392848;19;20036;-69
2023/12/14 11:14:23;;;;;;;10.27;4.40;;;;;;;7.51;73.15;101942.44;7395452;19;20376;-69
2023/12/14 11:16:54;;;;;;;11.20;4.55;;;;;;;7.65;72.35;101947.16;7395241;19;20025;-67
2023/12/14 11:19:23;;;;;;;13.10;5.30;;;;;;;7.66;72.30;101944.44;7394026;19;20054;-69
2023/12/14 11:21:56;;;;;;;9.82;4.35;;;;;;;7.78;72.14;101946.59;7391808;19;20021;-70
2023/12/14 11:24:25;;;;;;;11.02;4.60;;;;;;;7.51;72.62;101940.66;7394792;19;20030;-71
2023/12/14 11:26:54;;;;;;;10.38;4.60;;;;;;;7.48;72.83;101955.78;7395920;19;20074;-71
2023/12/14 11:29:22;;;;;;;10.50;4.60;;;;;;;7.50;73.05;101948.66;7393411;19;20027;-71
2023/12/14 11:31:51;;;;;;;10.88;4.85;;;;;;;7.60;72.60;101943.88;7392549;19;20026;-71
2023/12/14 11:34:19;;;;;;;10.88;4.72;;;;;;;7.45;72.42;101959.38;7395151;19;20011;-69
2023/12/14 11:36:48;;;;;;;9.98;4.65;;;;;;;7.43;72.61;101955.94;7395227;19;20339;-69
2023/12/14 11:39:16;;;;;;;10.10;4.53;;;;;;;7.50;72.77;101956.56;7392649;19;20022;-70
2023/12/14 11:42:02;;;;;;;9.15;4.30;;;;;;;7.53;72.43;101965.19;7390548;19;20026;-68